Time;durP1;ratioP1;P1;durP2;ratioP2;P2;SDS_P1;SDS_P2;PMS_P1;PMS_P2;Temp;Humidity;BMP_temperature;BMP_pressure;BME280_temperature;BME280_humidity;BME280_pressure;Samples;Min_cycle;Max_cycle;Signal;HPM_P1;HPM_P2
2023/07/05 00:01:08;;;;;;;8.90;3.20;;;;;;;12.23;100.00;92788.78;2497491;23;20014;-84
2023/07/05 00:02:20;;;;;;;5.20;3.38;;;;;;;12.08;100.00;92789.25;2531607;23;20432;-85
2023/07/05 00:03:24;;;;;;;7.35;3.00;;;;;;;12.25;100.00;92797.16;2539283;23;20060;-84
2023/07/05 00:04:28;;;;;;;10.23;3.00;;;;;;;12.22;100.00;92787.28;2547146;23;20446;-85
2023/07/05 00:05:31;;;;;;;6.13;3.10;;;;;;;12.24;100.00;92788.34;2535505;23;20066;-84
2023/07/05 00:06:39;;;;;;;9.10;3.95;;;;;;;12.37;100.00;92790.22;2522471;23;20013;-84
2023/07/05 00:07:46;;;;;;;5.75;3.38;;;;;;;12.41;100.00;92793.53;2524969;23;20034;-81
2023/07/05 00:08:54;;;;;;;8.52;3.50;;;;;;;12.35;100.00;92793.34;2536493;23;20092;-85
2023/07/05 00:10:03;;;;;;;6.93;3.10;;;;;;;12.30;100.00;92799.28;2547783;23;20025;-84
2023/07/05 00:11:14;;;;;;;9.43;3.38;;;;;;;12.30;100.00;92793.91;2535693;23;20088;-84
2023/07/05 00:12:22;;;;;;;11.35;3.60;;;;;;;12.21;100.00;92799.94;2538740;23;20018;-81
2023/07/05 00:13:37;;;;;;;7.57;3.08;;;;;;;12.19;100.00;92799.63;2540553;23;20020;-83
2023/07/05 00:14:45;;;;;;;5.75;3.40;;;;;;;12.29;100.00;92797.75;2548838;23;20049;-82
2023/07/05 00:15:54;;;;;;;9.45;3.38;;;;;;;12.26;100.00;92794.03;2555289;23;20009;-83
2023/07/05 00:17:05;;;;;;;7.30;3.28;;;;;;;12.33;100.00;92804.50;2563341;23;20100;-84
2023/07/05 00:18:16;;;;;;;7.85;3.33;;;;;;;12.37;100.00;92800.94;2561509;23;20419;-84
2023/07/05 00:19:21;;;;;;;11.80;3.70;;;;;;;12.35;100.00;92804.81;2547258;23;20005;-83
2023/07/05 00:20:30;;;;;;;6.53;3.08;;;;;;;12.39;100.00;92799.34;2537398;23;20002;-84
2023/07/05 00:21:35;;;;;;;7.38;3.42;;;;;;;12.44;100.00;92793.44;2537031;23;20017;-84
2023/07/05 00:23:00;;;;;;;9.02;3.60;;;;;;;12.42;100.00;92790.41;2536670;23;20065;-84
2023/07/05 00:24:08;;;;;;;10.43;3.70;;;;;;;12.43;100.00;92785.81;2564736;23;20011;-84
2023/07/05 00:25:16;;;;;;;8.23;3.63;;;;;;;12.32;100.00;92784.25;2559031;23;20005;-85
2023/07/05 00:26:25;;;;;;;8.40;2.83;;;;;;;12.30;100.00;92783.19;2548667;23;20379;-85
2023/07/05 00:27:34;;;;;;;7.47;3.58;;;;;;;12.32;100.00;92781.56;2535542;23;20010;-86
2023/07/05 00:28:45;;;;;;;7.05;3.17;;;;;;;12.46;100.00;92779.56;2537344;23;20014;-84
2023/07/05 00:29:54;;;;;;;8.18;3.22;;;;;;;12.40;100.00;92771.34;2536015;23;20029;-84
2023/07/05 00:31:05;;;;;;;7.30;3.25;;;;;;;12.52;100.00;92778.59;2537523;23;20012;-84
2023/07/05 00:32:14;;;;;;;5.72;2.92;;;;;;;12.49;100.00;92784.06;2549930;23;20107;-84
2023/07/05 00:33:39;;;;;;;8.02;3.67;;;;;;;12.51;100.00;92781.69;2548466;23;20013;-83
2023/07/05 00:34:53;;;;;;;6.55;3.33;;;;;;;12.42;100.00;92778.94;2544325;23;20000;-84
2023/07/05 00:36:08;;;;;;;8.90;3.85;;;;;;;12.40;100.00;92775.97;2547009;23;20009;-84
2023/07/05 00:37:21;;;;;;;8.63;3.42;;;;;;;12.47;100.00;92773.81;2534502;23;20010;-83
2023/07/05 00:38:29;;;;;;;6.32;3.40;;;;;;;12.42;100.00;92770.91;2537709;23;20452;-82
2023/07/05 00:39:37;;;;;;;9.23;3.42;;;;;;;12.37;100.00;92772.22;2548064;23;20013;-83
2023/07/05 00:40:46;;;;;;;7.47;2.92;;;;;;;12.42;100.00;92768.22;2537411;23;20010;-84
2023/07/05 00:41:51;;;;;;;4.95;3.00;;;;;;;12.39;100.00;92769.88;2548536;23;20063;-83
2023/07/05 00:43:02;;;;;;;5.72;3.50;;;;;;;12.31;100.00;92766.66;2547105;23;20004;-84
2023/07/05 00:44:15;;;;;;;5.95;3.28;;;;;;;12.37;100.00;92764.19;2547935;23;20090;-85
2023/07/05 00:45:44;;;;;;;9.63;3.17;;;;;;;12.26;100.00;92769.16;2550687;23;20009;-83
2023/07/05 00:47:16;;;;;;;5.82;3.10;;;;;;;12.39;100.00;92761.81;2564218;23;20099;-84
2023/07/05 00:48:56;;;;;;;9.13;2.92;;;;;;;12.17;100.00;92767.16;2568912;23;20415;-83
2023/07/05 00:50:22;;;;;;;7.97;3.35;;;;;;;12.31;100.00;92758.63;2565054;23;20098;-84
2023/07/05 00:51:48;;;;;;;5.25;2.95;;;;;;;12.28;100.00;92762.16;2556831;23;20015;-83
2023/07/05 00:52:57;;;;;;;6.72;3.08;;;;;;;12.20;100.00;92765.53;2550376;23;20012;-85
2023/07/05 00:54:05;;;;;;;7.32;3.67;;;;;;;12.08;100.00;92764.41;2536706;23;20528;-84
2023/07/05 00:55:12;;;;;;;9.30;3.85;;;;;;;12.04;100.00;92767.19;2536134;23;20066;-85
2023/07/05 00:56:59;;;;;;;5.65;3.15;;;;;;;12.18;100.00;92760.59;2535866;23;20006;-84
2023/07/05 00:58:16;;;;;;;7.00;2.97;;;;;;;12.31;100.00;92763.25;2551433;23;20052;-85
2023/07/05 00:59:28;;;;;;;6.32;3.63;;;;;;;12.34;100.00;92763.13;2539710;23;20002;-81
2023/07/05 01:00:37;;;;;;;6.18;3.20;;;;;;;12.28;100.00;92759.50;2550255;23;20009;-83
2023/07/05 01:01:58;;;;;;;6.57;3.65;;;;;;;12.26;100.00;92756.50;2546327;23;20148;-86
2023/07/05 01:03:11;;;;;;;4.53;2.75;;;;;;;12.31;100.00;92772.03;2553861;23;20036;-85
2023/07/05 01:05:05;;;;;;;5.85;2.92;;;;;;;12.30;100.00;92769.78;2560493;23;20444;-86
2023/07/05 01:06:22;;;;;;;4.93;3.33;;;;;;;12.41;100.00;92764.81;2556662;23;20028;-83
2023/07/05 01:07:33;;;;;;;7.00;3.53;;;;;;;12.48;100.00;92767.25;2539276;23;20411;-85
2023/07/05 01:08:46;;;;;;;5.85;3.40;;;;;;;12.58;100.00;92774.16;2538692;23;20731;-86
2023/07/05 01:09:51;;;;;;;;;;;;;;;12.59;100.00;92772.22;2538212;23;20406;-83
2023/07/05 01:11:49;;;;;;;5.93;3.40;;;;;;;12.48;100.00;92769.94;2535371;23;19979;-84
2023/07/05 01:13:17;;;;;;;7.70;3.10;;;;;;;12.56;100.00;92773.13;2556964;23;20059;-81
2023/07/05 01:14:49;;;;;;;6.68;3.65;;;;;;;12.56;100.00;92771.19;2550165;23;20328;-84
2023/07/05 01:16:22;;;;;;;5.38;2.83;;;;;;;12.57;100.00;92769.25;2544128;23;20009;-86
2023/07/05 01:17:47;;;;;;;5.57;3.25;;;;;;;12.55;100.00;92769.66;2546230;23;20012;-86
2023/07/05 01:19:12;;;;;;;5.97;3.00;;;;;;;12.64;100.00;92762.88;2543212;23;20009;-84
2023/07/05 01:20:55;;;;;;;4.47;2.95;;;;;;;12.69;100.00;92759.66;2550038;23;20079;-83
2023/07/05 01:22:05;;;;;;;8.25;3.42;;;;;;;12.73;100.00;92757.56;2566116;23;20526;-85
2023/07/05 01:23:44;;;;;;;4.38;3.10;;;;;;;12.66;100.00;92760.50;2560007;23;20005;-83
2023/07/05 01:25:05;;;;;;;6.90;3.42;;;;;;;12.58;100.00;92762.69;2553682;23;20009;-81
2023/07/05 01:26:34;;;;;;;7.22;3.08;;;;;;;12.64;100.00;92763.63;2549540;23;20016;-83
2023/07/05 01:28:16;;;;;;;6.25;2.90;;;;;;;12.71;100.00;92766.06;2551714;23;20072;-85
2023/07/05 01:29:59;;;;;;;10.23;3.90;;;;;;;12.89;100.00;92767.34;2554840;23;20036;-83
2023/07/05 01:31:43;;;;;;;6.32;2.95;;;;;;;12.82;100.00;92766.44;2555151;23;20005;-83
2023/07/05 01:33:23;;;;;;;6.28;3.05;;;;;;;12.77;100.00;92771.59;2563586;23;20032;-83
2023/07/05 01:34:47;;;;;;;6.97;2.90;;;;;;;12.82;100.00;92763.75;2553588;23;20016;-82
2023/07/05 01:35:55;;;;;;;5.50;3.00;;;;;;;12.72;100.00;92772.91;2548585;23;20035;-83
2023/07/05 01:37:01;;;;;;;9.27;3.00;;;;;;;12.72;100.00;92762.19;2551087;23;20040;-83
2023/07/05 01:38:09;;;;;;;11.90;3.08;;;;;;;12.84;100.00;92766.00;2550070;23;20012;-84
2023/07/05 01:39:17;;;;;;;5.55;3.35;;;;;;;12.76;100.00;92770.84;2538059;23;20055;-84
2023/07/05 01:40:26;;;;;;;8.02;3.40;;;;;;;12.82;100.00;92773.75;2548011;23;20016;-84
2023/07/05 01:41:35;;;;;;;9.27;3.70;;;;;;;12.82;100.00;92777.16;2537114;23;20016;-85
2023/07/05 01:42:49;;;;;;;4.80;3.30;;;;;;;12.89;100.00;92778.84;2537935;23;20418;-81
2023/07/05 01:44:23;;;;;;;10.32;3.42;;;;;;;12.93;100.00;92779.44;2552914;23;20484;-86
2023/07/05 01:46:03;;;;;;;7.57;3.25;;;;;;;12.96;100.00;92778.59;2547625;23;20005;-84
2023/07/05 01:47:33;;;;;;;7.85;3.55;;;;;;;12.96;100.00;92772.47;2548896;23;20088;-86
2023/07/05 01:48:56;;;;;;;7.20;3.35;;;;;;;13.01;100.00;92779.94;2555508;23;20066;-86
2023/07/05 01:50:26;;;;;;;8.07;2.80;;;;;;;13.13;100.00;92781.06;2549871;23;20016;-82
2023/07/05 01:51:46;;;;;;;4.05;2.70;;;;;;;13.15;100.00;92778.69;2563147;23;20100;-82
2023/07/05 01:53:04;;;;;;;10.00;2.92;;;;;;;13.21;100.00;92787.66;2570449;23;20000;-81
2023/07/05 01:54:27;;;;;;;7.30;3.08;;;;;;;13.17;100.00;92781.66;2557676;23;20335;-86
2023/07/05 01:55:54;;;;;;;6.25;3.05;;;;;;;13.23;100.00;92779.94;2541798;23;20016;-83
2023/07/05 01:57:24;;;;;;;9.38;3.35;;;;;;;13.26;100.00;92784.44;2555979;23;20111;-83
2023/07/05 01:58:37;;;;;;;4.05;2.58;;;;;;;13.30;100.00;92780.44;2550907;23;20000;-82
2023/07/05 01:59:58;;;;;;;4.85;2.70;;;;;;;13.41;100.00;92784.66;2547025;23;20017;-82
2023/07/05 02:01:11;;;;;;;8.48;3.00;;;;;;;13.44;100.00;92789.88;2541684;23;20080;-83
2023/07/05 02:02:17;;;;;;;7.30;2.88;;;;;;;13.47;100.00;92797.03;2538364;23;20009;-83
2023/07/05 02:03:25;;;;;;;8.88;2.95;;;;;;;13.53;100.00;92808.72;2549077;23;20005;-82
2023/07/05 02:04:37;;;;;;;9.73;2.80;;;;;;;13.42;100.00;92802.97;2558857;23;20001;-84
2023/07/05 02:05:44;;;;;;;7.03;2.95;;;;;;;13.53;100.00;92811.41;2547286;23;20436;-83
2023/07/05 02:06:53;;;;;;;6.53;2.88;;;;;;;13.48;100.00;92809.28;2535976;23;20017;-83
2023/07/05 02:08:04;;;;;;;7.68;3.67;;;;;;;13.47;100.00;92807.03;2548612;23;20009;-83
2023/07/05 02:09:14;;;;;;;10.38;3.17;;;;;;;13.60;100.00;92808.41;2547275;23;20399;-84
2023/07/05 02:10:28;;;;;;;8.15;2.80;;;;;;;13.73;100.00;92800.25;2546607;23;20010;-82
2023/07/05 02:11:38;;;;;;;7.40;3.00;;;;;;;13.75;100.00;92792.53;2547680;23;20059;-84
2023/07/05 02:12:47;;;;;;;7.32;3.00;;;;;;;13.79;100.00;92798.50;2535705;23;20543;-82
2023/07/05 02:13:56;;;;;;;6.57;2.72;;;;;;;13.80;100.00;92796.56;2535564;23;20124;-82
2023/07/05 02:15:07;;;;;;;7.25;3.28;;;;;;;13.79;100.00;92803.13;2536022;23;20053;-81
2023/07/05 02:16:15;;;;;;;5.90;3.22;;;;;;;13.73;100.00;92789.53;2547207;23;20010;-81
2023/07/05 02:17:22;;;;;;;7.65;3.00;;;;;;;13.78;100.00;92783.59;2536697;23;20009;-82
2023/07/05 02:18:31;;;;;;;7.30;2.55;;;;;;;13.79;100.00;92784.34;2559649;23;20087;-80
2023/07/05 02:19:41;;;;;;;3.38;2.33;;;;;;;13.86;100.00;92779.41;2547861;23;20009;-83
2023/07/05 02:20:49;;;;;;;5.68;2.65;;;;;;;13.83;100.00;92779.56;2538121;23;20006;-83
2023/07/05 02:22:02;;;;;;;7.07;2.90;;;;;;;13.76;100.00;92771.78;2547417;23;20459;-84
2023/07/05 02:23:12;;;;;;;8.75;2.53;;;;;;;13.75;100.00;92781.78;2550714;23;20076;-83
2023/07/05 02:24:21;;;;;;;3.47;2.25;;;;;;;13.73;100.00;92780.72;2557957;23;20063;-83
2023/07/05 02:25:27;;;;;;;5.18;2.40;;;;;;;13.75;100.00;92781.03;2557290;23;20005;-82
2023/07/05 02:26:34;;;;;;;6.00;2.47;;;;;;;13.66;100.00;92776.38;2558855;23;20080;-83
2023/07/05 02:27:42;;;;;;;4.63;2.30;;;;;;;13.68;100.00;92781.31;2557426;23;20005;-82
2023/07/05 02:28:51;;;;;;;4.00;2.30;;;;;;;13.80;100.00;92788.50;2546240;23;20041;-83
2023/07/05 02:29:57;;;;;;;2.67;1.95;;;;;;;13.79;100.00;92792.41;2559907;23;20007;-84
2023/07/05 02:31:13;;;;;;;4.78;2.05;;;;;;;13.75;100.00;92786.41;2557365;23;20001;-83
2023/07/05 02:32:21;;;;;;;3.45;1.98;;;;;;;13.71;100.00;92783.13;2535501;23;20017;-80
2023/07/05 02:33:29;;;;;;;5.00;2.10;;;;;;;13.81;100.00;92780.00;2549095;23;20066;-83
2023/07/05 02:34:42;;;;;;;4.63;2.05;;;;;;;13.79;100.00;92778.97;2546738;23;20013;-82
2023/07/05 02:35:50;;;;;;;4.65;2.03;;;;;;;13.76;100.00;92777.16;2538931;23;20057;-82
2023/07/05 02:36:56;;;;;;;5.47;1.88;;;;;;;13.83;100.00;92780.31;2548069;23;20092;-83
2023/07/05 02:38:05;;;;;;;3.88;2.13;;;;;;;13.78;100.00;92775.53;2546987;23;19997;-83
2023/07/05 02:39:17;;;;;;;6.93;2.03;;;;;;;13.71;100.00;92769.69;2560575;23;20325;-83
2023/07/05 02:40:27;;;;;;;3.72;1.60;;;;;;;13.70;100.00;92771.63;2545857;23;20020;-81
2023/07/05 02:41:34;;;;;;;;;;;;;;;13.70;100.00;92757.44;2548821;23;20372;-82
2023/07/05 02:42:44;;;;;;;2.72;1.50;;;;;;;13.74;100.00;92760.72;2534019;23;19909;-83
2023/07/05 02:43:57;;;;;;;3.45;2.00;;;;;;;13.77;100.00;92757.16;2519749;23;20010;-81
2023/07/05 02:45:07;;;;;;;2.70;1.80;;;;;;;13.62;100.00;92764.28;2538526;23;20143;-79
2023/07/05 02:46:18;;;;;;;3.35;1.80;;;;;;;13.59;100.00;92755.16;2557430;23;20004;-83
2023/07/05 02:47:30;;;;;;;3.10;1.85;;;;;;;13.58;100.00;92759.78;2558150;23;20447;-81
2023/07/05 02:48:40;;;;;;;6.55;1.88;;;;;;;13.64;100.00;92761.88;2535479;23;20053;-83
2023/07/05 02:49:47;;;;;;;3.92;1.85;;;;;;;13.56;100.00;92753.34;2536909;23;20006;-79
2023/07/05 02:50:55;;;;;;;2.45;1.85;;;;;;;13.49;100.00;92756.34;2545681;23;20424;-81
2023/07/05 02:52:05;;;;;;;2.65;1.88;;;;;;;13.45;100.00;92758.41;2535465;23;20491;-81
2023/07/05 02:53:15;;;;;;;4.32;1.80;;;;;;;13.46;100.00;92757.97;2535133;23;20006;-83
2023/07/05 02:54:23;;;;;;;4.25;1.90;;;;;;;13.48;100.00;92754.84;2536509;23;20041;-82
2023/07/05 02:55:52;;;;;;;6.15;2.00;;;;;;;13.45;100.00;92751.09;2546577;23;20380;-83
2023/07/05 02:57:01;;;;;;;2.45;1.92;;;;;;;13.40;100.00;92754.38;2550674;23;20020;-83
2023/07/05 02:58:11;;;;;;;4.03;2.35;;;;;;;13.41;100.00;92755.09;2535059;23;20009;-83
2023/07/05 02:59:22;;;;;;;3.35;2.13;;;;;;;13.39;100.00;92752.09;2537556;23;20511;-83
2023/07/05 03:00:29;;;;;;;1.70;1.60;;;;;;;13.33;100.00;92763.44;2545438;23;20030;-81
2023/07/05 03:01:38;;;;;;;1.42;1.33;;;;;;;13.33;100.00;92752.69;2545485;23;20073;-83
2023/07/05 03:02:46;;;;;;;2.80;1.70;;;;;;;13.35;100.00;92755.69;2544392;23;20016;-82
2023/07/05 03:03:56;;;;;;;4.10;1.95;;;;;;;13.26;100.00;92762.97;2530584;23;20009;-86
2023/07/05 03:05:12;;;;;;;3.45;1.58;;;;;;;13.30;100.00;92767.00;2530748;23;20010;-84
2023/07/05 03:06:21;;;;;;;3.40;2.22;;;;;;;13.29;100.00;92768.19;2530683;23;20006;-81
2023/07/05 03:07:31;;;;;;;2.92;2.03;;;;;;;13.24;100.00;92762.66;2536951;23;20033;-82
2023/07/05 03:08:35;;;;;;;3.10;2.10;;;;;;;13.20;100.00;92764.69;2528236;23;20002;-82
2023/07/05 03:09:48;;;;;;;3.95;1.90;;;;;;;13.25;100.00;92761.44;2523883;23;20006;-81
2023/07/05 03:10:57;;;;;;;3.28;1.90;;;;;;;13.23;100.00;92769.22;2537287;23;20006;-84
2023/07/05 03:12:05;;;;;;;3.65;1.83;;;;;;;13.22;100.00;92763.09;2537578;23;20269;-81
2023/07/05 03:13:12;;;;;;;4.00;2.13;;;;;;;13.24;100.00;92765.31;2548323;23;20016;-83
2023/07/05 03:14:24;;;;;;;4.72;2.00;;;;;;;13.22;100.00;92762.31;2560703;23;20523;-83
2023/07/05 03:15:29;;;;;;;4.10;1.90;;;;;;;13.21;100.00;92758.13;2559363;23;20339;-83
2023/07/05 03:16:37;;;;;;;2.83;1.95;;;;;;;13.20;100.00;92762.00;2545036;23;20064;-83
2023/07/05 03:17:42;;;;;;;3.95;2.25;;;;;;;13.22;100.00;92762.31;2522745;23;20006;-81
2023/07/05 03:18:53;;;;;;;4.13;2.17;;;;;;;13.17;100.00;92760.19;2535134;23;20001;-81
2023/07/05 03:20:02;;;;;;;2.55;1.98;;;;;;;13.21;100.00;92760.81;2547510;23;20005;-84
2023/07/05 03:21:10;;;;;;;5.18;2.35;;;;;;;13.20;100.00;92765.44;2536388;23;20013;-83
2023/07/05 03:22:18;;;;;;;3.17;1.90;;;;;;;13.26;100.00;92757.59;2535962;23;20356;-82
2023/07/05 03:23:27;;;;;;;3.63;2.13;;;;;;;13.22;100.00;92765.78;2535842;23;20017;-81
2023/07/05 03:24:34;;;;;;;2.75;1.80;;;;;;;13.18;100.00;92757.09;2524327;23;20010;-83
2023/07/05 03:25:41;;;;;;;2.45;1.70;;;;;;;13.32;100.00;92771.94;2537021;23;19998;-82
2023/07/05 03:26:47;;;;;;;3.50;1.60;;;;;;;13.28;100.00;92766.69;2546559;23;20082;-84
2023/07/05 03:27:51;;;;;;;3.40;2.28;;;;;;;13.25;100.00;92762.19;2534829;23;20080;-81
2023/07/05 03:28:56;;;;;;;4.25;2.03;;;;;;;13.24;100.00;92768.75;2524038;23;20009;-84
2023/07/05 03:30:01;;;;;;;3.03;2.00;;;;;;;13.20;100.00;92765.44;2524878;23;20073;-83
2023/07/05 03:31:12;;;;;;;3.92;2.20;;;;;;;13.19;100.00;92755.16;2536099;23;20010;-82
2023/07/05 03:32:19;;;;;;;3.92;2.28;;;;;;;13.18;100.00;92756.34;2549965;23;20016;-83
2023/07/05 03:33:26;;;;;;;4.55;2.00;;;;;;;13.19;100.00;92749.78;2561337;23;20005;-82
2023/07/05 03:34:31;;;;;;;3.45;2.67;;;;;;;13.23;100.00;92753.84;2548493;23;20032;-81
2023/07/05 03:35:39;;;;;;;3.45;2.33;;;;;;;13.20;100.00;92753.94;2547719;23;20005;-83
2023/07/05 03:36:47;;;;;;;2.75;2.47;;;;;;;13.22;100.00;92755.03;2559326;23;20012;-84
2023/07/05 03:37:56;;;;;;;7.57;2.78;;;;;;;13.17;100.00;92757.50;2560026;23;20020;-82
2023/07/05 03:39:05;;;;;;;4.05;2.47;;;;;;;13.14;100.00;92751.09;2559038;23;20415;-84
2023/07/05 03:40:15;;;;;;;3.75;2.67;;;;;;;13.25;100.00;92756.09;2547032;23;20494;-83
2023/07/05 03:41:26;;;;;;;4.88;2.65;;;;;;;13.29;100.00;92756.69;2547018;23;20009;-82
2023/07/05 03:42:33;;;;;;;3.03;2.28;;;;;;;13.66;100.00;92762.22;2562839;23;20005;-83
2023/07/05 03:43:46;;;;;;;4.93;2.60;;;;;;;13.59;100.00;92758.59;2558448;23;20032;-81
2023/07/05 03:44:51;;;;;;;4.07;2.50;;;;;;;13.51;100.00;92762.00;2549954;23;20420;-83
2023/07/05 03:46:00;;;;;;;8.30;2.50;;;;;;;13.51;100.00;92765.44;2547128;23;20033;-83
2023/07/05 03:47:08;;;;;;;2.85;2.30;;;;;;;13.53;100.00;92749.63;2560188;23;20013;-83
2023/07/05 03:48:19;;;;;;;3.53;2.30;;;;;;;13.48;100.00;92752.16;2546900;23;20009;-82
2023/07/05 03:49:27;;;;;;;3.78;2.70;;;;;;;13.40;100.00;92750.94;2548011;23;20523;-83
2023/07/05 03:50:39;;;;;;;4.97;2.70;;;;;;;13.38;100.00;92751.34;2547131;23;20009;-82
2023/07/05 03:51:44;;;;;;;3.78;2.65;;;;;;;13.37;100.00;92757.94;2549773;23;20093;-83
2023/07/05 03:52:53;;;;;;;4.25;2.83;;;;;;;13.33;100.00;92757.31;2545820;23;20002;-82
2023/07/05 03:54:01;;;;;;;3.67;2.60;;;;;;;13.37;100.00;92762.56;2538232;23;20002;-82
2023/07/05 03:55:07;;;;;;;5.72;2.70;;;;;;;13.40;100.00;92762.41;2537200;23;20022;-82
2023/07/05 03:56:16;;;;;;;3.28;2.60;;;;;;;13.37;100.00;92755.25;2546473;23;20045;-80
2023/07/05 03:57:21;;;;;;;3.15;2.80;;;;;;;13.45;100.00;92761.09;2547817;23;20006;-80
2023/07/05 03:58:28;;;;;;;3.45;2.70;;;;;;;13.39;100.00;92760.94;2557797;23;20006;-81
2023/07/05 03:59:37;;;;;;;6.82;2.88;;;;;;;13.47;100.00;92758.69;2555820;23;20012;-81
2023/07/05 04:00:41;;;;;;;3.97;3.00;;;;;;;13.46;100.00;92757.22;2545613;23;20045;-82
2023/07/05 04:01:50;;;;;;;5.93;3.10;;;;;;;13.55;100.00;92755.31;2549513;23;20016;-83
2023/07/05 04:03:00;;;;;;;3.72;2.67;;;;;;;13.63;100.00;92761.16;2560022;23;20005;-82
2023/07/05 04:04:09;;;;;;;5.18;2.95;;;;;;;13.67;100.00;92769.06;2548833;23;20007;-82
2023/07/05 04:05:17;;;;;;;3.58;2.83;;;;;;;13.63;100.00;92763.84;2537779;23;20005;-82
2023/07/05 04:06:37;;;;;;;6.03;2.60;;;;;;;13.62;100.00;92767.72;2548071;23;20101;-83
2023/07/05 04:07:47;;;;;;;3.45;2.63;;;;;;;13.63;100.00;92768.47;2550480;23;20009;-83
2023/07/05 04:08:56;;;;;;;5.35;3.00;;;;;;;13.61;100.00;92768.91;2537632;23;20012;-84
2023/07/05 04:10:05;;;;;;;6.07;2.92;;;;;;;13.60;100.00;92762.78;2537192;23;20001;-82
2023/07/05 04:11:18;;;;;;;5.05;2.80;;;;;;;13.68;100.00;92759.81;2546877;23;20060;-84
2023/07/05 04:12:28;;;;;;;5.18;3.17;;;;;;;13.69;100.00;92762.06;2550133;23;20012;-82
2023/07/05 04:13:38;;;;;;;3.63;2.70;;;;;;;13.78;100.00;92769.38;2557729;23;20032;-83
2023/07/05 04:14:45;;;;;;;6.68;2.92;;;;;;;13.66;100.00;92767.59;2538515;23;20017;-82
2023/07/05 04:16:14;;;;;;;5.00;3.20;;;;;;;13.68;100.00;92757.88;2537041;23;20008;-84
2023/07/05 04:17:18;;;;;;;5.25;2.95;;;;;;;13.77;100.00;92765.94;2552160;23;20012;-82
2023/07/05 04:18:24;;;;;;;8.27;3.35;;;;;;;13.69;100.00;92764.72;2536149;23;20440;-82
2023/07/05 04:19:32;;;;;;;4.70;3.13;;;;;;;13.72;100.00;92769.22;2547902;23;20337;-82
2023/07/05 04:20:41;;;;;;;4.53;3.20;;;;;;;13.71;100.00;92769.69;2547909;23;20486;-82
2023/07/05 04:21:50;;;;;;;3.80;2.93;;;;;;;13.62;100.00;92767.72;2548248;23;20131;-83
2023/07/05 04:23:03;;;;;;;7.80;3.97;;;;;;;13.57;100.00;92754.88;2550230;23;20021;-82
2023/07/05 04:24:15;;;;;;;4.60;3.28;;;;;;;13.67;100.00;92761.00;2561660;23;20055;-83
2023/07/05 04:25:33;;;;;;;10.60;3.40;;;;;;;13.60;100.00;92768.13;2548899;23;20433;-81
2023/07/05 04:26:40;;;;;;;3.72;3.20;;;;;;;13.57;100.00;92771.72;2562286;23;20012;-82
2023/07/05 04:27:49;;;;;;;5.95;3.22;;;;;;;13.73;100.00;92767.28;2558783;23;20011;-80
2023/07/05 04:29:15;;;;;;;5.72;3.25;;;;;;;13.67;100.00;92767.13;2557847;23;20040;-83
2023/07/05 04:30:24;;;;;;;4.15;3.10;;;;;;;13.89;100.00;92766.28;2551355;23;20036;-84
2023/07/05 04:31:32;;;;;;;6.97;3.72;;;;;;;13.93;100.00;92772.28;2548586;23;20375;-83
2023/07/05 04:32:36;;;;;;;4.13;3.30;;;;;;;13.76;100.00;92771.78;2558926;23;20421;-84
2023/07/05 04:33:46;;;;;;;7.63;3.63;;;;;;;13.68;100.00;92775.94;2545777;23;20005;-82
2023/07/05 04:34:53;;;;;;;6.50;3.50;;;;;;;13.65;100.00;92766.06;2536522;23;20006;-82
2023/07/05 04:36:06;;;;;;;6.78;3.72;;;;;;;13.60;100.00;92767.41;2535390;23;20009;-81
2023/07/05 04:37:16;;;;;;;4.97;3.40;;;;;;;13.52;100.00;92771.53;2538198;23;20066;-83
2023/07/05 04:38:23;;;;;;;8.88;3.63;;;;;;;13.52;100.00;92771.53;2548379;23;20012;-83
2023/07/05 04:39:54;;;;;;;5.65;3.78;;;;;;;13.67;100.00;92769.81;2557619;23;20013;-83
2023/07/05 04:41:00;;;;;;;;;;;;;;;13.71;100.00;92767.00;2541207;23;20012;-84
2023/07/05 04:42:09;;;;;;;6.75;3.80;;;;;;;13.71;100.00;92773.13;2530377;23;19915;-83
2023/07/05 04:43:16;;;;;;;6.75;3.78;;;;;;;13.73;100.00;92770.72;2542551;23;20076;-83
2023/07/05 04:44:24;;;;;;;7.63;4.30;;;;;;;13.82;100.00;92776.09;2532250;23;20005;-84
2023/07/05 04:45:33;;;;;;;6.90;3.70;;;;;;;13.90;100.00;92771.22;2544657;23;20009;-84
2023/07/05 04:46:41;;;;;;;8.70;4.10;;;;;;;13.96;100.00;92771.34;2540899;23;20005;-81
2023/07/05 04:47:49;;;;;;;5.65;3.42;;;;;;;14.03;100.00;92768.41;2534190;23;20029;-82
2023/07/05 04:48:51;;;;;;;6.35;3.78;;;;;;;14.10;100.00;92776.94;2531703;23;20945;-83
2023/07/05 04:49:52;;;;;;;8.60;3.85;;;;;;;14.09;100.00;92774.66;2529039;23;20017;-83
2023/07/05 04:50:57;;;;;;;6.22;3.85;;;;;;;14.10;100.00;92771.56;2530500;23;20073;-83
2023/07/05 04:51:58;;;;;;;7.45;3.35;;;;;;;14.06;100.00;92776.31;2532446;23;20036;-82
2023/07/05 04:52:59;;;;;;;10.15;3.50;;;;;;;14.25;100.00;92769.00;2529477;23;20002;-85
2023/07/05 04:54:01;;;;;;;8.05;3.72;;;;;;;14.23;100.00;92771.41;2542598;23;20084;-83
2023/07/05 04:55:03;;;;;;;7.43;4.15;;;;;;;14.29;100.00;92776.94;2554904;23;20440;-84
2023/07/05 04:56:04;;;;;;;8.32;3.10;;;;;;;14.54;100.00;92774.00;2553966;23;20009;-85
2023/07/05 04:57:06;;;;;;;5.35;3.80;;;;;;;14.36;100.00;92773.97;2542361;23;20088;-83
2023/07/05 04:58:07;;;;;;;7.90;3.88;;;;;;;14.28;100.00;92776.19;2541832;23;20104;-83
2023/07/05 04:59:10;;;;;;;5.35;3.47;;;;;;;14.28;100.00;92770.81;2542111;23;20020;-83
2023/07/05 05:00:12;;;;;;;5.30;3.83;;;;;;;14.52;100.00;92776.38;2555011;23;20020;-85
2023/07/05 05:01:15;;;;;;;4.65;3.50;;;;;;;14.59;100.00;92778.03;2543754;23;20010;-82
2023/07/05 05:02:16;;;;;;;7.80;4.10;;;;;;;14.53;100.00;92775.19;2543489;23;20013;-84
2023/07/05 05:03:22;;;;;;;7.57;3.30;;;;;;;14.42;100.00;92774.84;2531703;23;20502;-82
2023/07/05 05:04:23;;;;;;;7.60;3.65;;;;;;;14.41;100.00;92775.31;2532731;23;20805;-84
2023/07/05 05:05:24;;;;;;;6.38;3.85;;;;;;;14.32;100.00;92776.06;2530031;23;20016;-84
2023/07/05 05:06:25;;;;;;;7.63;3.90;;;;;;;14.50;100.00;92778.78;2531049;23;20009;-84
2023/07/05 05:07:29;;;;;;;9.18;3.70;;;;;;;14.49;100.00;92779.97;2555640;23;20008;-84
2023/07/05 05:08:31;;;;;;;5.45;3.38;;;;;;;14.73;100.00;92787.44;2567835;23;20011;-83
2023/07/05 05:09:36;;;;;;;6.38;4.07;;;;;;;14.83;100.00;92783.53;2542132;23;20005;-84
2023/07/05 05:10:38;;;;;;;8.85;4.20;;;;;;;14.60;100.00;92791.00;2530974;23;20033;-84
2023/07/05 05:11:40;;;;;;;8.43;3.97;;;;;;;14.58;100.00;92784.59;2533663;23;20062;-84
2023/07/05 05:12:51;;;;;;;6.35;3.80;;;;;;;14.48;100.00;92783.84;2532784;23;20008;-82
2023/07/05 05:13:54;;;;;;;7.57;3.70;;;;;;;14.45;100.00;92781.28;2538933;23;20016;-83
2023/07/05 05:14:57;;;;;;;6.18;3.95;;;;;;;14.60;100.00;92787.56;2534885;23;20009;-85
2023/07/05 05:16:00;;;;;;;4.38;3.58;;;;;;;14.62;100.00;92785.19;2533629;23;20428;-84
2023/07/05 05:17:02;;;;;;;9.70;4.05;;;;;;;14.63;100.00;92788.63;2533581;23;20016;-82
2023/07/05 05:18:09;;;;;;;4.80;3.10;;;;;;;14.69;100.00;92790.25;2544331;23;20039;-82
2023/07/05 05:19:11;;;;;;;5.82;3.35;;;;;;;14.92;100.00;92796.22;2545402;23;20016;-85
2023/07/05 05:20:12;;;;;;;6.65;3.72;;;;;;;14.90;100.00;92795.94;2531467;23;20597;-84
2023/07/05 05:21:20;;;;;;;4.93;3.17;;;;;;;14.95;100.00;92801.44;2545165;23;20005;-83
2023/07/05 05:22:23;;;;;;;6.22;3.50;;;;;;;14.94;100.00;92793.84;2557013;23;20016;-84
2023/07/05 05:23:24;;;;;;;4.82;3.22;;;;;;;15.03;100.00;92802.63;2554036;23;20019;-85
2023/07/05 05:24:27;;;;;;;5.03;3.25;;;;;;;15.02;100.00;92792.34;2554891;23;20012;-83
2023/07/05 05:25:29;;;;;;;8.00;3.28;;;;;;;14.99;100.00;92796.66;2553449;23;20435;-84
2023/07/05 05:26:30;;;;;;;5.82;3.20;;;;;;;14.94;100.00;92797.28;2553566;23;20012;-84
2023/07/05 05:27:31;;;;;;;5.30;3.10;;;;;;;15.07;100.00;92803.22;2554587;23;20012;-84
2023/07/05 05:28:32;;;;;;;11.27;3.20;;;;;;;15.17;100.00;92800.50;2541811;23;20028;-83
2023/07/05 05:29:33;;;;;;;4.28;3.08;;;;;;;15.29;100.00;92802.28;2542779;23;20116;-82
2023/07/05 05:30:35;;;;;;;5.57;3.03;;;;;;;15.21;100.00;92801.84;2555261;23;20005;-82
2023/07/05 05:31:37;;;;;;;5.18;3.22;;;;;;;15.14;100.00;92788.69;2542597;23;20798;-86
2023/07/05 05:32:38;;;;;;;9.85;3.25;;;;;;;15.18;100.00;92786.59;2543771;23;20088;-84